createdAt,value
2018-08-28T00:01:41.589Z,5.97
2018-08-28T00:04:11.219Z,6.23
2018-08-28T00:06:40.896Z,6.17
2018-08-28T00:09:10.558Z,5.90
2018-08-28T00:11:40.267Z,8.40
2018-08-28T00:14:09.945Z,7.27
2018-08-28T00:16:39.603Z,9.30
2018-08-28T00:19:09.269Z,6.10
2018-08-28T00:21:39.078Z,6.27
2018-08-28T00:24:08.698Z,6.30
2018-08-28T00:26:38.339Z,6.87
2018-08-28T00:29:08.054Z,6.70
2018-08-28T00:31:37.662Z,6.63
2018-08-28T00:34:07.367Z,6.37
2018-08-28T00:36:37.033Z,6.33
2018-08-28T00:39:07.268Z,6.73
2018-08-28T00:41:37.000Z,6.87
2018-08-28T00:44:06.794Z,6.97
2018-08-28T00:46:36.408Z,7.20
2018-08-28T00:49:06.163Z,7.10
2018-08-28T00:51:35.850Z,6.43
2018-08-28T00:54:05.660Z,5.30
2018-08-28T00:56:35.371Z,6.30
2018-08-28T00:59:05.529Z,6.03
2018-08-28T01:01:35.158Z,7.17
2018-08-28T01:04:04.927Z,6.83
2018-08-28T01:06:34.895Z,8.07
2018-08-28T01:09:05.594Z,6.10
2018-08-28T01:11:35.222Z,8.00
2018-08-28T01:14:04.814Z,6.73
2018-08-28T01:16:34.407Z,5.97
2018-08-28T01:19:04.162Z,8.10
2018-08-28T01:21:33.813Z,7.13
2018-08-28T01:24:03.806Z,6.90
2018-08-28T01:26:33.633Z,7.83
2018-08-28T01:29:03.462Z,6.43
2018-08-28T01:31:33.208Z,6.33
2018-08-28T01:34:03.010Z,7.00
2018-08-28T01:36:32.756Z,6.50
2018-08-28T01:39:02.702Z,7.43
2018-08-28T01:41:32.560Z,6.97
2018-08-28T01:44:02.285Z,6.90
2018-08-28T01:46:32.105Z,7.03
2018-08-28T01:49:01.802Z,7.40
2018-08-28T01:51:31.533Z,7.47
2018-08-28T01:54:16.049Z,6.50
2018-08-28T01:56:45.737Z,6.30
2018-08-28T01:59:15.493Z,7.03
2018-08-28T02:01:45.422Z,6.87
2018-08-28T02:04:15.116Z,7.77
2018-08-28T02:06:44.837Z,7.67
2018-08-28T02:09:14.561Z,7.67
2018-08-28T02:11:44.320Z,8.20
2018-08-28T02:14:14.073Z,7.37
2018-08-28T02:16:43.798Z,7.53
2018-08-28T02:19:13.517Z,8.17
2018-08-28T02:21:43.205Z,6.70
2018-08-28T02:24:12.920Z,8.10
2018-08-28T02:26:42.973Z,7.47
2018-08-28T02:29:19.523Z,7.60
2018-08-28T02:31:49.235Z,7.53
2018-08-28T02:34:18.982Z,22.77
2018-08-28T02:36:48.742Z,8.13
2018-08-28T02:39:18.446Z,9.03
2018-08-28T02:41:48.292Z,8.07
2018-08-28T02:44:18.069Z,8.20
2018-08-28T02:46:47.786Z,8.63
2018-08-28T02:49:17.494Z,14.33
2018-08-28T02:51:47.265Z,16.90
2018-08-28T02:54:16.940Z,13.93
2018-08-28T02:56:46.726Z,8.50
2018-08-28T02:59:16.766Z,8.50
2018-08-28T03:01:46.489Z,8.20
2018-08-28T03:04:16.230Z,7.83
2018-08-28T03:06:46.311Z,7.20
2018-08-28T03:09:16.052Z,7.40
2018-08-28T03:11:45.770Z,7.43
2018-08-28T03:14:15.601Z,8.50
2018-08-28T03:16:45.321Z,7.60
2018-08-28T03:19:15.027Z,9.20
2018-08-28T03:21:44.782Z,7.37
2018-08-28T03:24:14.723Z,8.83
2018-08-28T03:26:44.442Z,7.13
2018-08-28T03:29:14.252Z,8.10
2018-08-28T03:31:43.845Z,7.70
2018-08-28T03:34:13.560Z,7.90
2018-08-28T03:36:43.309Z,8.20
2018-08-28T03:39:13.014Z,8.67
2018-08-28T03:41:42.765Z,7.27
2018-08-28T03:44:12.508Z,12.87
2018-08-28T03:46:42.242Z,14.40
2018-08-28T03:49:11.979Z,7.87
2018-08-28T03:51:41.741Z,9.47
2018-08-28T03:54:11.486Z,7.43
2018-08-28T03:56:41.237Z,7.30
2018-08-28T03:59:11.313Z,7.80
2018-08-28T04:01:40.991Z,7.67
2018-08-28T04:04:11.326Z,6.80
2018-08-28T04:06:41.203Z,7.37
2018-08-28T04:09:11.369Z,7.47
2018-08-28T04:11:41.136Z,7.20
2018-08-28T04:14:10.912Z,6.90
2018-08-28T04:16:40.620Z,8.30
2018-08-28T04:19:10.370Z,8.00
2018-08-28T04:21:40.165Z,8.60
2018-08-28T04:24:09.858Z,7.17
2018-08-28T04:26:39.613Z,6.90
2018-08-28T04:29:09.380Z,6.73
2018-08-28T04:31:39.074Z,6.03
2018-08-28T04:34:08.825Z,7.17
2018-08-28T04:36:38.579Z,6.67
2018-08-28T04:39:09.020Z,7.70
2018-08-28T04:41:38.729Z,6.17
2018-08-28T04:44:08.464Z,6.90
2018-08-28T04:46:38.625Z,7.17
2018-08-28T04:49:08.320Z,6.20
2018-08-28T04:51:38.137Z,6.00
2018-08-28T04:54:07.852Z,5.37
2018-08-28T04:56:37.566Z,6.73
2018-08-28T04:59:07.273Z,6.20
2018-08-28T05:01:36.986Z,5.70
2018-08-28T05:04:07.406Z,6.67
2018-08-28T05:06:37.150Z,7.63
2018-08-28T05:09:08.153Z,6.90
2018-08-28T05:11:37.864Z,5.97
2018-08-28T05:14:07.744Z,6.73
2018-08-28T05:16:37.423Z,8.10
2018-08-28T05:19:07.358Z,8.20
2018-08-28T05:21:37.196Z,6.50
2018-08-28T05:24:06.910Z,6.10
2018-08-28T05:26:36.590Z,6.80
2018-08-28T05:29:06.461Z,6.10
2018-08-28T05:31:36.168Z,5.40
2018-08-28T05:34:06.285Z,5.43
2018-08-28T05:36:36.378Z,6.70
2018-08-28T05:39:07.653Z,6.67
2018-08-28T05:41:37.501Z,5.67
2018-08-28T05:44:07.229Z,9.97
2018-08-28T05:46:36.990Z,10.50
2018-08-28T05:49:06.816Z,6.53
2018-08-28T05:51:36.468Z,5.70
2018-08-28T05:54:06.165Z,4.83
2018-08-28T05:56:35.985Z,5.00
2018-08-28T05:59:05.726Z,6.37
2018-08-28T06:01:35.504Z,5.50
2018-08-28T06:04:05.257Z,6.40
2018-08-28T06:06:34.981Z,5.50
2018-08-28T06:09:05.577Z,5.90
2018-08-28T06:11:35.357Z,4.90
2018-08-28T06:14:05.137Z,5.43
2018-08-28T06:16:34.862Z,6.43
2018-08-28T06:19:04.701Z,4.63
2018-08-28T06:21:34.413Z,4.97
2018-08-28T06:24:04.155Z,5.13
2018-08-28T06:26:33.995Z,9.20
2018-08-28T06:29:03.629Z,4.90
2018-08-28T06:31:33.365Z,5.30
2018-08-28T06:34:03.203Z,4.23
2018-08-28T06:36:32.761Z,4.87
2018-08-28T06:39:02.467Z,5.37
2018-08-28T06:41:32.195Z,5.33
2018-08-28T06:44:01.992Z,4.93
2018-08-28T06:46:31.658Z,4.00
2018-08-28T06:49:01.694Z,4.90
2018-08-28T06:51:31.473Z,5.10
2018-08-28T06:54:01.201Z,4.60
2018-08-28T06:56:30.910Z,4.77
2018-08-28T06:59:00.667Z,4.20
2018-08-28T07:01:30.452Z,4.40
2018-08-28T07:04:00.475Z,3.93
2018-08-28T07:06:30.102Z,5.10
2018-08-28T07:08:59.857Z,4.20
2018-08-28T07:11:29.536Z,3.67
2018-08-28T07:13:59.315Z,3.93
2018-08-28T07:16:29.054Z,4.27
2018-08-28T07:18:58.885Z,3.90
2018-08-28T07:21:28.570Z,4.40
2018-08-28T07:23:58.588Z,4.10
2018-08-28T07:26:28.315Z,4.27
2018-08-28T07:28:58.157Z,4.63
2018-08-28T07:31:27.968Z,4.93
2018-08-28T07:33:57.662Z,4.47
2018-08-28T07:36:27.401Z,3.90
2018-08-28T07:38:57.338Z,4.10
2018-08-28T07:41:27.098Z,3.40
2018-08-28T07:43:56.797Z,3.70
2018-08-28T07:46:26.533Z,4.23
2018-08-28T07:48:56.235Z,2.93
2018-08-28T07:51:26.017Z,3.90
2018-08-28T07:53:55.823Z,3.80
2018-08-28T07:56:25.490Z,4.53
2018-08-28T07:58:55.150Z,3.77
2018-08-28T08:01:25.022Z,4.20
2018-08-28T08:03:54.637Z,3.63
2018-08-28T08:06:24.340Z,3.63
2018-08-28T08:08:54.119Z,3.27
2018-08-28T08:11:23.826Z,3.87
2018-08-28T08:13:53.574Z,4.30
2018-08-28T08:16:23.301Z,4.20
2018-08-28T08:18:53.015Z,4.03
2018-08-28T08:21:22.824Z,3.30
2018-08-28T08:23:52.528Z,3.50
2018-08-28T08:26:22.257Z,3.43
2018-08-28T08:28:51.976Z,2.77
2018-08-28T08:31:21.877Z,3.50
2018-08-28T08:33:51.784Z,2.90
2018-08-28T08:36:21.562Z,3.73
2018-08-28T08:38:51.297Z,3.60
2018-08-28T08:41:21.242Z,3.57
2018-08-28T08:43:50.981Z,3.30
2018-08-28T08:46:20.740Z,5.83
2018-08-28T08:48:50.460Z,3.23
2018-08-28T08:51:20.166Z,3.90
2018-08-28T08:53:49.878Z,6.50
2018-08-28T08:56:19.587Z,3.73
2018-08-28T08:58:49.295Z,4.13
2018-08-28T09:01:18.997Z,3.70
2018-08-28T09:03:48.811Z,3.20
2018-08-28T09:06:18.532Z,3.20
2018-08-28T09:08:48.292Z,3.47
2018-08-28T09:11:18.081Z,3.20
2018-08-28T09:13:47.786Z,3.70
2018-08-28T09:16:17.469Z,3.07
2018-08-28T09:18:47.317Z,3.43
2018-08-28T09:21:16.989Z,2.67
2018-08-28T09:23:46.779Z,9.70
2018-08-28T09:26:16.766Z,3.70
2018-08-28T09:28:46.437Z,3.97
2018-08-28T09:31:16.193Z,3.40
2018-08-28T09:33:45.891Z,3.47
2018-08-28T09:36:15.586Z,3.83
2018-08-28T09:38:45.316Z,3.60
2018-08-28T09:41:15.049Z,3.90
2018-08-28T09:43:44.784Z,4.40
2018-08-28T09:46:14.526Z,3.50
2018-08-28T09:48:44.222Z,4.53
2018-08-28T09:51:13.925Z,3.30
2018-08-28T09:53:43.614Z,3.87
2018-08-28T09:56:13.305Z,3.40
2018-08-28T09:58:43.041Z,3.40
2018-08-28T10:01:17.999Z,3.70
2018-08-28T10:03:47.703Z,3.77
2018-08-28T10:06:17.417Z,3.27
2018-08-28T10:08:47.118Z,3.47
2018-08-28T10:11:16.787Z,4.60
2018-08-28T10:13:46.464Z,3.50
2018-08-28T10:16:16.186Z,3.80
2018-08-28T10:18:45.902Z,4.00
2018-08-28T10:21:15.614Z,3.73
2018-08-28T10:23:45.365Z,4.20
2018-08-28T10:26:15.021Z,5.33
2018-08-28T10:28:44.711Z,3.73
2018-08-28T10:31:14.481Z,4.43
2018-08-28T10:33:44.153Z,3.70
2018-08-28T10:36:13.858Z,4.60
2018-08-28T10:38:43.746Z,4.60
2018-08-28T10:41:13.457Z,4.40
2018-08-28T10:43:43.158Z,3.90
2018-08-28T10:46:12.950Z,4.50
2018-08-28T10:48:42.592Z,4.47
2018-08-28T10:51:12.265Z,4.40
2018-08-28T10:53:41.951Z,5.00
2018-08-28T10:56:11.660Z,4.53
2018-08-28T10:58:41.453Z,4.33
2018-08-28T11:01:11.113Z,5.13
2018-08-28T11:03:40.834Z,4.87
2018-08-28T11:06:10.546Z,5.50
2018-08-28T11:08:40.315Z,4.50
2018-08-28T11:11:10.030Z,5.10
2018-08-28T11:13:39.743Z,4.13
2018-08-28T11:16:09.562Z,4.00
2018-08-28T11:18:39.235Z,4.77
2018-08-28T11:21:09.246Z,4.90
2018-08-28T11:23:39.233Z,5.23
2018-08-28T11:26:08.945Z,4.17
2018-08-28T11:28:38.793Z,4.33
2018-08-28T11:31:08.693Z,5.40
2018-08-28T11:33:38.492Z,5.07
2018-08-28T11:36:08.357Z,5.93
2018-08-28T11:38:38.272Z,6.30
2018-08-28T11:41:08.059Z,4.50
2018-08-28T11:43:37.870Z,5.03
2018-08-28T11:46:08.082Z,8.80
2018-08-28T11:48:37.875Z,6.33
2018-08-28T11:51:07.722Z,4.77
2018-08-28T11:53:37.497Z,4.63
2018-08-28T11:56:07.280Z,4.70
2018-08-28T11:58:37.160Z,10.23
2018-08-28T12:01:07.085Z,4.50
2018-08-28T12:03:36.829Z,5.30
2018-08-28T12:06:06.638Z,4.63
2018-08-28T12:08:36.355Z,4.63
2018-08-28T12:11:06.157Z,5.00
2018-08-28T12:13:35.890Z,5.97
2018-08-28T12:16:05.762Z,5.03
2018-08-28T12:18:35.446Z,5.70
2018-08-28T12:21:05.427Z,4.73
2018-08-28T12:23:35.398Z,4.97
2018-08-28T12:26:05.129Z,5.50
2018-08-28T12:28:34.953Z,5.37
2018-08-28T12:31:04.696Z,5.33
2018-08-28T12:33:34.374Z,3.97
2018-08-28T12:36:04.249Z,4.27
2018-08-28T12:38:34.025Z,5.40
2018-08-28T12:41:03.709Z,4.50
2018-08-28T12:43:33.521Z,5.20
2018-08-28T12:46:03.255Z,6.30
2018-08-28T12:48:32.933Z,5.40
2018-08-28T12:51:09.208Z,6.27
2018-08-28T12:53:38.977Z,5.70
2018-08-28T12:56:08.798Z,4.20
2018-08-28T12:58:38.500Z,6.40
2018-08-28T13:01:08.197Z,4.70
2018-08-28T13:03:37.942Z,4.97
2018-08-28T13:06:07.841Z,5.70
2018-08-28T13:08:37.558Z,9.73
2018-08-28T13:11:07.688Z,6.00
2018-08-28T13:13:37.449Z,4.90
2018-08-28T13:16:07.194Z,6.20
2018-08-28T13:18:36.975Z,5.30
2018-08-28T13:21:06.928Z,7.07
2018-08-28T13:23:36.646Z,8.57
2018-08-28T13:26:06.932Z,7.00
2018-08-28T13:28:36.657Z,5.03
2018-08-28T13:31:06.438Z,5.20
2018-08-28T13:33:36.169Z,4.77
2018-08-28T13:36:05.887Z,4.70
2018-08-28T13:38:35.567Z,7.10
2018-08-28T13:41:05.342Z,4.80
2018-08-28T13:43:35.254Z,4.70
2018-08-28T13:46:04.993Z,5.37
2018-08-28T13:48:34.786Z,5.57
2018-08-28T13:51:04.515Z,8.13
2018-08-28T13:53:34.244Z,4.57
2018-08-28T13:56:03.906Z,7.40
2018-08-28T13:58:33.611Z,5.50
2018-08-28T14:01:03.318Z,5.10
2018-08-28T14:03:33.187Z,4.90
2018-08-28T14:06:02.901Z,4.70
2018-08-28T14:08:32.601Z,7.40
2018-08-28T14:11:02.333Z,5.00
2018-08-28T14:13:32.308Z,4.93
2018-08-28T14:16:01.860Z,5.50
2018-08-28T14:18:31.554Z,5.07
2018-08-28T14:21:01.277Z,10.17
2018-08-28T14:23:31.189Z,6.20
2018-08-28T14:26:00.940Z,6.20
2018-08-28T14:28:30.680Z,21.43
2018-08-28T14:31:00.433Z,6.27
2018-08-28T14:33:30.184Z,8.10
2018-08-28T14:35:59.937Z,6.13
2018-08-28T14:38:29.698Z,5.10
2018-08-28T14:40:59.453Z,7.67
2018-08-28T14:43:29.402Z,5.27
2018-08-28T14:45:59.076Z,5.97
2018-08-28T14:48:28.771Z,7.00
2018-08-28T14:50:58.605Z,5.17
2018-08-28T14:53:28.265Z,5.43
2018-08-28T14:55:57.978Z,5.70
2018-08-28T14:58:27.667Z,5.13
2018-08-28T15:00:57.325Z,5.70
2018-08-28T15:03:27.023Z,6.03
2018-08-28T15:05:56.899Z,5.23
2018-08-28T15:08:26.542Z,4.67
2018-08-28T15:10:56.273Z,5.57
2018-08-28T15:13:26.030Z,6.53
2018-08-28T15:15:55.711Z,6.20
2018-08-28T15:18:25.457Z,5.70
2018-08-28T15:20:55.170Z,6.93
2018-08-28T15:23:24.901Z,6.27
2018-08-28T15:25:54.618Z,5.80
2018-08-28T15:28:24.337Z,6.20
2018-08-28T15:30:54.111Z,5.10
2018-08-28T15:33:23.858Z,5.80
2018-08-28T15:35:53.593Z,5.40
2018-08-28T15:38:23.307Z,6.20
2018-08-28T15:40:53.057Z,5.57
2018-08-28T15:43:22.989Z,7.47
2018-08-28T15:45:52.745Z,6.60
2018-08-28T15:48:22.477Z,6.10
2018-08-28T15:50:52.224Z,5.27
2018-08-28T15:53:21.913Z,6.57
2018-08-28T15:55:51.651Z,5.90
2018-08-28T15:58:21.486Z,5.60
2018-08-28T16:00:51.249Z,6.30
2018-08-28T16:03:20.984Z,5.20
2018-08-28T16:05:50.867Z,6.33
2018-08-28T16:08:20.541Z,7.37
2018-08-28T16:10:50.235Z,5.60
2018-08-28T16:13:19.955Z,5.77
2018-08-28T16:15:49.722Z,6.00
2018-08-28T16:18:19.416Z,6.27
2018-08-28T16:20:49.157Z,6.03
2018-08-28T16:23:24.009Z,9.00
2018-08-28T16:25:53.965Z,6.13
2018-08-28T16:28:23.755Z,7.47
2018-08-28T16:30:53.639Z,7.40
2018-08-28T16:33:25.260Z,6.93
2018-08-28T16:35:55.060Z,7.00
2018-08-28T16:38:24.759Z,6.70
2018-08-28T16:40:54.517Z,5.67
2018-08-28T16:43:24.221Z,5.93
2018-08-28T16:45:53.970Z,6.70
2018-08-28T16:48:23.757Z,6.80
2018-08-28T16:50:53.546Z,12.63
2018-08-28T16:53:23.302Z,7.60
2018-08-28T16:55:53.183Z,7.53
2018-08-28T16:58:22.844Z,7.93
2018-08-28T17:00:52.578Z,10.00
2018-08-28T17:03:22.476Z,6.23
2018-08-28T17:05:52.183Z,7.73
2018-08-28T17:08:21.987Z,7.30
2018-08-28T17:10:51.825Z,7.80
2018-08-28T17:13:21.584Z,7.20
2018-08-28T17:15:51.295Z,6.50
2018-08-28T17:18:21.062Z,6.47
2018-08-28T17:20:50.784Z,6.50
2018-08-28T17:23:20.510Z,6.40
2018-08-28T17:25:50.239Z,7.27
2018-08-28T17:28:19.970Z,5.97
2018-08-28T17:30:49.831Z,12.93
2018-08-28T17:33:19.617Z,9.83
2018-08-28T17:35:49.290Z,6.27
2018-08-28T17:38:19.052Z,6.53
2018-08-28T17:40:48.963Z,6.67
2018-08-28T17:43:18.692Z,6.83
2018-08-28T17:45:48.442Z,8.80
2018-08-28T17:48:18.197Z,9.37
2018-08-28T17:50:47.891Z,8.70
2018-08-28T17:53:17.671Z,7.83
2018-08-28T17:55:47.430Z,6.80
2018-08-28T17:58:17.097Z,7.77
2018-08-28T18:00:46.877Z,7.70
2018-08-28T18:03:16.751Z,8.47
2018-08-28T18:05:46.426Z,7.07
2018-08-28T18:08:16.204Z,7.73
2018-08-28T18:10:45.957Z,13.87
2018-08-28T18:13:15.667Z,9.63
2018-08-28T18:15:45.398Z,9.50
2018-08-28T18:18:15.150Z,8.93
2018-08-28T18:20:44.922Z,9.70
2018-08-28T18:23:14.674Z,8.57
2018-08-28T18:25:44.598Z,7.43
2018-08-28T18:28:14.330Z,8.27
2018-08-28T18:30:44.114Z,8.40
2018-08-28T18:33:13.965Z,8.97
2018-08-28T18:35:43.690Z,16.87
2018-08-28T18:38:13.415Z,8.90
2018-08-28T18:40:43.263Z,8.30
2018-08-28T18:43:13.070Z,8.47
2018-08-28T18:45:43.332Z,8.40
2018-08-28T18:48:13.108Z,7.63
2018-08-28T18:50:42.812Z,8.67
2018-08-28T18:53:12.591Z,8.10
2018-08-28T18:55:42.517Z,7.93
2018-08-28T18:58:12.223Z,8.63
2018-08-28T19:00:41.979Z,9.53
2018-08-28T19:03:11.778Z,9.93
2018-08-28T19:05:41.456Z,9.73
2018-08-28T19:08:11.189Z,9.60
2018-08-28T19:10:40.911Z,9.47
2018-08-28T19:13:10.653Z,7.63
2018-08-28T19:15:40.383Z,10.07
2018-08-28T19:18:10.116Z,9.10
2018-08-28T19:20:39.882Z,15.00
2018-08-28T19:23:09.596Z,14.20
2018-08-28T19:25:39.379Z,15.97
2018-08-28T19:28:09.125Z,11.20
2018-08-28T19:30:38.843Z,14.17
2018-08-28T19:33:08.623Z,11.40
2018-08-28T19:35:38.369Z,11.37
2018-08-28T19:38:08.572Z,11.50
2018-08-28T19:40:38.462Z,11.00
2018-08-28T19:43:08.198Z,10.87
2018-08-28T19:45:37.983Z,10.30
2018-08-28T19:48:07.742Z,9.00
2018-08-28T19:50:37.481Z,10.70
2018-08-28T19:53:07.251Z,8.57
2018-08-28T19:55:37.314Z,11.77
2018-08-28T19:58:07.069Z,8.30
2018-08-28T20:00:36.769Z,9.00
2018-08-28T20:03:06.630Z,9.50
2018-08-28T20:05:36.355Z,8.90
2018-08-28T20:08:06.335Z,8.50
2018-08-28T20:10:36.099Z,9.73
2018-08-28T20:13:05.957Z,9.30
2018-08-28T20:15:35.686Z,8.47
2018-08-28T20:18:05.496Z,9.00
2018-08-28T20:20:35.232Z,9.33
2018-08-28T20:23:05.173Z,8.97
2018-08-28T20:25:34.856Z,9.17
2018-08-28T20:28:04.610Z,10.17
2018-08-28T20:30:34.326Z,10.50
2018-08-28T20:33:04.022Z,10.77
2018-08-28T20:35:33.753Z,10.20
2018-08-28T20:38:03.471Z,10.13
2018-08-28T20:40:33.199Z,7.77
2018-08-28T20:43:02.922Z,8.37
2018-08-28T20:45:32.757Z,8.13
2018-08-28T20:48:02.584Z,9.10
2018-08-28T20:50:32.313Z,8.57
2018-08-28T20:53:02.095Z,7.87
2018-08-28T20:55:31.932Z,7.97
2018-08-28T20:58:01.729Z,9.80
2018-08-28T21:00:35.577Z,9.00
2018-08-28T21:03:06.351Z,9.50
2018-08-28T21:05:36.041Z,9.60
2018-08-28T21:08:05.862Z,8.43
2018-08-28T21:10:35.583Z,8.20
2018-08-28T21:13:05.503Z,8.77
2018-08-28T21:15:35.087Z,9.63
2018-08-28T21:18:04.829Z,8.57
2018-08-28T21:20:34.610Z,9.07
2018-08-28T21:23:04.443Z,8.40
2018-08-28T21:25:34.105Z,7.60
2018-08-28T21:28:03.845Z,7.67
2018-08-28T21:30:33.526Z,8.87
2018-08-28T21:33:03.299Z,7.07
2018-08-28T21:35:33.067Z,8.10
2018-08-28T21:38:02.739Z,14.47
2018-08-28T21:40:32.465Z,7.50
2018-08-28T21:43:02.263Z,8.70
2018-08-28T21:45:31.992Z,7.23
2018-08-28T21:48:01.689Z,7.30
2018-08-28T21:50:31.495Z,9.90
2018-08-28T21:53:01.257Z,8.60
2018-08-28T21:55:31.114Z,7.23
2018-08-28T21:58:00.908Z,7.60
2018-08-28T22:00:30.637Z,8.23
2018-08-28T22:03:00.433Z,8.10
2018-08-28T22:05:30.152Z,8.33
2018-08-28T22:08:00.091Z,8.30
2018-08-28T22:10:30.920Z,8.33
2018-08-28T22:13:00.765Z,8.77
2018-08-28T22:15:30.441Z,9.10
2018-08-28T22:18:00.157Z,7.90
2018-08-28T22:20:29.818Z,8.10
2018-08-28T22:22:59.495Z,7.70
2018-08-28T22:25:29.091Z,9.60
2018-08-28T22:27:58.706Z,9.40
2018-08-28T22:30:28.387Z,9.50
2018-08-28T22:32:57.996Z,8.03
2018-08-28T22:35:27.605Z,8.90
2018-08-28T22:37:57.199Z,9.87
2018-08-28T22:40:26.816Z,9.13
2018-08-28T22:42:56.471Z,9.70
2018-08-28T22:45:26.063Z,8.70
2018-08-28T22:47:55.691Z,8.53
2018-08-28T22:50:25.295Z,7.93
2018-08-28T22:52:54.859Z,7.70
2018-08-28T22:55:24.472Z,7.83
2018-08-28T22:57:54.095Z,8.77
2018-08-28T23:00:24.343Z,8.40
2018-08-28T23:02:55.459Z,8.43
2018-08-28T23:05:25.098Z,7.87
2018-08-28T23:07:54.698Z,8.03
2018-08-28T23:10:24.380Z,7.87
2018-08-28T23:12:54.083Z,8.00
2018-08-28T23:15:23.690Z,8.20
2018-08-28T23:17:53.342Z,9.27
2018-08-28T23:20:23.046Z,9.23
2018-08-28T23:22:52.686Z,9.03
2018-08-28T23:25:22.419Z,7.70
2018-08-28T23:27:52.054Z,8.30
2018-08-28T23:30:21.654Z,7.50
2018-08-28T23:32:51.263Z,8.13
2018-08-28T23:35:20.866Z,8.57
2018-08-28T23:37:50.467Z,9.00
2018-08-28T23:40:20.084Z,9.20
2018-08-28T23:42:49.675Z,8.00
2018-08-28T23:45:19.301Z,7.27
2018-08-28T23:47:49.229Z,8.00
2018-08-28T23:50:18.920Z,8.53
2018-08-28T23:52:48.536Z,8.90
2018-08-28T23:55:18.172Z,7.80
2018-08-28T23:57:47.799Z,8.00
